createdAt,value
2018-05-01T00:01:58.137Z,1.50
2018-05-01T00:04:01.508Z,1.20
2018-05-01T00:06:05.633Z,1.57
2018-05-01T00:08:09.789Z,1.40
2018-05-01T00:10:13.153Z,1.30
2018-05-01T00:12:16.508Z,1.50
2018-05-01T00:14:19.864Z,1.20
2018-05-01T00:16:23.242Z,1.53
2018-05-01T00:18:26.669Z,1.30
2018-05-01T00:20:30.006Z,1.27
2018-05-01T00:22:34.187Z,1.50
2018-05-01T00:24:37.595Z,1.57
2018-05-01T00:26:41.692Z,1.43
2018-05-01T00:28:45.059Z,1.33
2018-05-01T00:30:48.580Z,1.70
2018-05-01T00:32:51.929Z,1.30
2018-05-01T00:34:55.277Z,1.47
2018-05-01T00:36:59.403Z,1.33
2018-05-01T00:39:03.747Z,1.37
2018-05-01T00:41:07.109Z,1.50
2018-05-01T00:43:10.528Z,1.70
2018-05-01T00:45:13.909Z,1.50
2018-05-01T00:47:17.236Z,1.40
2018-05-01T00:49:20.606Z,1.60
2018-05-01T00:51:23.945Z,1.30
2018-05-01T00:53:27.308Z,1.67
2018-05-01T00:55:30.658Z,1.50
2018-05-01T00:57:34.001Z,1.50
2018-05-01T00:59:37.404Z,1.43
2018-05-01T01:01:40.786Z,2.13
2018-05-01T01:03:44.164Z,1.73
2018-05-01T01:05:47.525Z,1.70
2018-05-01T01:07:50.845Z,1.67
2018-05-01T01:09:54.235Z,2.00
2018-05-01T01:11:57.556Z,1.50
2018-05-01T01:14:01.767Z,2.00
2018-05-01T01:16:05.151Z,1.73
2018-05-01T01:18:09.278Z,1.80
2018-05-01T01:20:12.673Z,1.90
2018-05-01T01:22:16.766Z,1.90
2018-05-01T01:24:20.166Z,1.80
2018-05-01T01:26:23.530Z,1.90
2018-05-01T01:28:26.842Z,1.90
2018-05-01T01:30:30.211Z,2.00
2018-05-01T01:32:33.563Z,1.90
2018-05-01T01:34:36.951Z,1.80
2018-05-01T01:36:39.833Z,2.10
2018-05-01T01:38:43.519Z,2.37
2018-05-01T01:40:46.389Z,2.13
2018-05-01T01:42:49.286Z,1.80
2018-05-01T01:44:52.178Z,1.80
2018-05-01T01:46:55.082Z,2.10
2018-05-01T01:48:57.946Z,1.93
2018-05-01T01:51:00.789Z,2.07
2018-05-01T01:53:03.658Z,1.97
2018-05-01T01:55:06.548Z,2.03
2018-05-01T01:57:10.162Z,1.80
2018-05-01T01:59:13.801Z,1.93
2018-05-01T02:01:16.627Z,2.00
2018-05-01T02:03:20.234Z,1.63
2018-05-01T02:05:24.511Z,2.10
2018-05-01T02:07:27.363Z,2.10
2018-05-01T02:09:30.238Z,2.17
2018-05-01T02:11:33.120Z,2.20
2018-05-01T02:13:36.020Z,2.33
2018-05-01T02:15:38.931Z,2.07
2018-05-01T02:17:41.823Z,1.73
2018-05-01T02:19:45.459Z,2.00
2018-05-01T02:21:48.308Z,2.20
2018-05-01T02:23:51.916Z,2.07
2018-05-01T02:25:54.882Z,2.00
2018-05-01T02:27:57.730Z,2.37
2018-05-01T02:30:00.586Z,2.00
2018-05-01T02:32:03.477Z,2.07
2018-05-01T02:34:06.318Z,2.13
2018-05-01T02:36:09.197Z,2.10
2018-05-01T02:38:12.066Z,2.40
2018-05-01T02:40:15.720Z,1.80
2018-05-01T02:42:18.572Z,2.10
2018-05-01T02:44:21.525Z,2.17
2018-05-01T02:46:24.388Z,2.17
2018-05-01T02:48:27.251Z,2.13
2018-05-01T02:50:30.147Z,1.80
2018-05-01T02:52:33.012Z,1.90
2018-05-01T02:54:35.849Z,1.80
2018-05-01T02:56:38.742Z,1.83
2018-05-01T02:58:41.668Z,1.70
2018-05-01T03:00:44.545Z,2.17
2018-05-01T03:02:47.411Z,2.40
2018-05-01T03:04:50.255Z,2.10
2018-05-01T03:06:53.405Z,2.10
2018-05-01T03:08:57.123Z,2.47
2018-05-01T03:13:09.774Z,2.30
2018-05-01T03:15:12.683Z,2.20
2018-05-01T03:17:17.022Z,2.27
2018-05-01T03:19:20.685Z,2.00
2018-05-01T03:21:23.715Z,2.50
2018-05-01T03:23:26.633Z,2.50
2018-05-01T03:25:29.463Z,2.40
2018-05-01T03:27:32.699Z,3.43
2018-05-01T03:29:35.560Z,2.50
2018-05-01T03:31:38.528Z,3.00
2018-05-01T03:33:41.403Z,2.57
2018-05-01T03:35:45.046Z,2.93
2018-05-01T03:37:47.909Z,2.47
2018-05-01T03:39:50.765Z,2.70
2018-05-01T03:41:53.641Z,2.23
2018-05-01T03:43:56.558Z,2.50
2018-05-01T03:45:59.412Z,2.30
2018-05-01T03:48:03.043Z,2.70
2018-05-01T03:50:06.874Z,3.00
2018-05-01T03:52:09.789Z,2.60
2018-05-01T03:54:13.398Z,2.80
2018-05-01T03:56:16.240Z,2.80
2018-05-01T03:58:19.098Z,2.77
2018-05-01T04:00:21.979Z,2.90
2018-05-01T04:02:24.810Z,2.57
2018-05-01T04:04:28.415Z,2.87
2018-05-01T04:06:32.054Z,3.00
2018-05-01T04:08:34.884Z,2.97
2018-05-01T04:10:37.728Z,2.60
2018-05-01T04:12:40.651Z,2.83
2018-05-01T04:14:43.491Z,2.80
2018-05-01T04:16:46.346Z,3.03
2018-05-01T04:18:49.181Z,3.10
2018-05-01T04:20:52.012Z,2.40
2018-05-01T04:22:54.903Z,3.10
2018-05-01T04:24:57.781Z,3.30
2018-05-01T04:27:00.643Z,3.20
2018-05-01T04:29:03.496Z,3.43
2018-05-01T04:31:06.359Z,3.60
2018-05-01T04:33:09.979Z,3.20
2018-05-01T04:35:12.886Z,3.30
2018-05-01T04:37:15.744Z,3.37
2018-05-01T04:39:18.589Z,3.70
2018-05-01T04:41:22.280Z,3.40
2018-05-01T04:43:25.133Z,4.80
2018-05-01T04:45:28.018Z,4.00
2018-05-01T04:47:30.860Z,4.27
2018-05-01T04:49:33.678Z,3.40
2018-05-01T04:51:36.548Z,4.33
2018-05-01T04:53:39.370Z,4.60
2018-05-01T04:55:43.032Z,4.67
2018-05-01T04:57:45.926Z,4.00
2018-05-01T04:59:48.744Z,4.40
2018-05-01T05:01:52.398Z,4.20
2018-05-01T05:03:56.041Z,4.53
2018-05-01T05:05:59.650Z,4.10
2018-05-01T05:08:02.520Z,3.93
2018-05-01T05:10:05.434Z,4.33
2018-05-01T05:12:08.277Z,5.07
2018-05-01T05:14:11.153Z,4.30
2018-05-01T05:16:14.018Z,5.03
2018-05-01T05:18:16.883Z,4.27
2018-05-01T05:20:20.558Z,5.07
2018-05-01T05:22:23.433Z,4.63
2018-05-01T05:24:26.256Z,5.30
2018-05-01T05:26:29.187Z,4.90
2018-05-01T05:28:32.070Z,5.33
2018-05-01T05:30:34.957Z,5.23
2018-05-01T05:32:37.803Z,5.80
2018-05-01T05:34:40.666Z,4.93
2018-05-01T05:36:44.317Z,4.83
2018-05-01T05:38:47.149Z,5.20
2018-05-01T05:40:50.785Z,5.73
2018-05-01T05:42:53.624Z,4.93
2018-05-01T05:44:57.245Z,4.70
2018-05-01T05:47:00.190Z,5.27
2018-05-01T05:49:03.039Z,4.90
2018-05-01T05:51:05.956Z,5.70
2018-05-01T05:53:08.830Z,4.67
2018-05-01T05:55:11.680Z,4.80
2018-05-01T05:57:14.518Z,4.90
2018-05-01T05:59:18.168Z,5.53
2018-05-01T06:01:21.059Z,4.57
2018-05-01T06:03:23.932Z,5.40
2018-05-01T06:05:26.770Z,4.70
2018-05-01T06:07:29.616Z,4.73
2018-05-01T06:09:33.240Z,4.50
2018-05-01T06:11:36.957Z,4.90
2018-05-01T06:13:39.799Z,5.33
2018-05-01T06:15:43.467Z,4.47
2018-05-01T06:17:46.351Z,4.80
2018-05-01T06:19:49.960Z,4.70
2018-05-01T06:21:52.897Z,5.00
2018-05-01T06:23:55.637Z,4.70
2018-05-01T06:25:59.257Z,4.47
2018-05-01T06:28:02.122Z,5.20
2018-05-01T06:30:04.973Z,5.40
2018-05-01T06:32:07.816Z,4.90
2018-05-01T06:34:10.713Z,5.00
2018-05-01T06:36:13.616Z,4.30
2018-05-01T06:38:16.446Z,4.47
2018-05-01T06:40:19.281Z,4.73
2018-05-01T06:42:22.154Z,4.33
2018-05-01T06:44:25.005Z,5.00
2018-05-01T06:46:27.902Z,7.00
2018-05-01T06:48:30.732Z,5.30
2018-05-01T06:50:33.675Z,4.43
2018-05-01T06:52:36.508Z,4.53
2018-05-01T06:54:39.368Z,4.73
2018-05-01T06:56:42.333Z,5.63
2018-05-01T06:58:45.191Z,5.27
2018-05-01T07:00:48.110Z,4.60
2018-05-01T07:02:51.715Z,5.67
2018-05-01T07:04:54.596Z,4.50
2018-05-01T07:06:57.457Z,5.23
2018-05-01T07:09:01.973Z,5.00
2018-05-01T07:11:04.877Z,4.30
2018-05-01T07:13:07.755Z,5.30
2018-05-01T07:15:10.665Z,5.27
2018-05-01T07:17:13.545Z,5.03
2018-05-01T07:19:16.388Z,5.00
2018-05-01T07:21:20.113Z,6.80
2018-05-01T07:23:22.914Z,6.00
2018-05-01T07:25:25.765Z,4.90
2018-05-01T07:27:28.672Z,4.67
2018-05-01T07:29:31.566Z,4.70
2018-05-01T07:31:34.530Z,4.20
2018-05-01T07:33:37.394Z,4.30
2018-05-01T07:35:43.103Z,4.30
2018-05-01T07:37:46.694Z,4.00
2018-05-01T07:39:49.556Z,4.37
2018-05-01T07:41:52.550Z,4.80
2018-05-01T07:43:55.319Z,3.63
2018-05-01T07:45:58.187Z,3.60
2018-05-01T07:48:01.043Z,3.70
2018-05-01T07:50:03.922Z,3.90
2018-05-01T07:52:06.828Z,4.33
2018-05-01T07:54:09.713Z,3.33
2018-05-01T07:56:13.367Z,3.17
2018-05-01T07:58:16.226Z,3.20
2018-05-01T08:00:19.836Z,3.07
2018-05-01T08:02:22.776Z,4.30
2018-05-01T08:04:25.704Z,3.60
2018-05-01T08:06:28.641Z,2.97
2018-05-01T08:08:31.516Z,3.20
2018-05-01T08:10:34.432Z,3.53
2018-05-01T08:12:38.178Z,3.20
2018-05-01T08:14:41.070Z,3.57
2018-05-01T08:16:43.943Z,3.20
2018-05-01T08:18:46.758Z,3.67
2018-05-01T08:20:49.630Z,3.00
2018-05-01T08:22:52.490Z,3.00
2018-05-01T08:24:55.350Z,2.90
2018-05-01T08:26:58.265Z,2.93
2018-05-01T08:29:01.128Z,2.90
2018-05-01T08:31:03.979Z,3.13
2018-05-01T08:33:06.826Z,5.50
2018-05-01T08:35:10.671Z,7.30
2018-05-01T08:37:13.604Z,5.00
2018-05-01T08:39:16.481Z,6.67
2018-05-01T08:41:19.360Z,4.90
2018-05-01T08:43:22.191Z,5.03
2018-05-01T08:45:25.107Z,5.27
2018-05-01T08:47:27.984Z,4.37
2018-05-01T08:49:30.905Z,4.80
2018-05-01T08:51:34.576Z,7.60
2018-05-01T08:53:38.269Z,7.77
2018-05-01T08:55:41.136Z,5.63
2018-05-01T08:57:44.045Z,8.23
2018-05-01T08:59:46.877Z,5.53
2018-05-01T09:01:49.742Z,4.67
2018-05-01T09:03:52.607Z,4.50
2018-05-01T09:05:56.264Z,5.50
2018-05-01T09:07:59.108Z,5.67
2018-05-01T09:10:02.072Z,4.73
2018-05-01T09:12:05.031Z,5.77
2018-05-01T09:14:08.651Z,5.07
2018-05-01T09:16:11.499Z,6.57
2018-05-01T09:18:15.239Z,5.07
2018-05-01T09:20:18.812Z,5.17
2018-05-01T09:22:22.473Z,4.80
2018-05-01T09:24:25.484Z,3.87
2018-05-01T09:26:29.154Z,4.10
2018-05-01T09:28:32.009Z,4.00
2018-05-01T09:30:34.843Z,10.33
2018-05-01T09:32:38.099Z,17.00
2018-05-01T09:34:41.166Z,5.30
2018-05-01T09:36:44.071Z,4.30
2018-05-01T09:38:46.936Z,5.10
2018-05-01T09:40:49.810Z,4.03
2018-05-01T09:42:52.803Z,16.83
2018-05-01T09:44:55.696Z,16.20
2018-05-01T09:46:58.572Z,12.60
2018-05-01T09:49:01.427Z,14.23
2018-05-01T09:51:04.357Z,4.70
2018-05-01T09:53:07.760Z,18.13
2018-05-01T09:55:11.177Z,8.73
2018-05-01T09:57:14.617Z,12.10
2018-05-01T09:59:17.968Z,11.80
2018-05-01T10:01:21.344Z,6.77
2018-05-01T10:03:24.742Z,9.50
2018-05-01T10:05:29.625Z,7.63
2018-05-01T10:07:33.174Z,6.80
2018-05-01T10:09:36.556Z,7.00
2018-05-01T10:11:41.865Z,4.40
2018-05-01T10:13:45.734Z,5.73
2018-05-01T10:15:49.338Z,6.90
2018-05-01T10:17:52.805Z,5.97
2018-05-01T10:19:56.152Z,6.30
2018-05-01T10:22:00.308Z,4.07
2018-05-01T10:24:03.888Z,8.40
2018-05-01T10:26:07.321Z,7.23
2018-05-01T10:28:11.230Z,5.37
2018-05-01T10:30:14.834Z,5.63
2018-05-01T10:32:18.196Z,4.97
2018-05-01T10:34:22.390Z,5.77
2018-05-01T10:36:25.883Z,4.83
2018-05-01T10:38:29.325Z,3.70
2018-05-01T10:40:32.655Z,7.13
2018-05-01T10:42:36.153Z,6.90
2018-05-01T10:44:40.311Z,6.80
2018-05-01T10:46:43.759Z,6.43
2018-05-01T10:48:47.945Z,4.80
2018-05-01T10:50:51.527Z,4.13
2018-05-01T10:52:55.674Z,4.73
2018-05-01T10:55:00.006Z,3.70
2018-05-01T10:57:03.517Z,3.40
2018-05-01T10:59:06.924Z,3.67
2018-05-01T11:01:10.380Z,4.10
2018-05-01T11:03:13.892Z,3.40
2018-05-01T11:05:17.259Z,3.57
2018-05-01T11:07:20.651Z,3.90
2018-05-01T11:09:24.048Z,4.00
2018-05-01T11:11:27.904Z,3.30
2018-05-01T11:13:31.476Z,3.57
2018-05-01T11:15:35.631Z,2.73
2018-05-01T11:17:39.286Z,4.17
2018-05-01T11:19:42.698Z,4.13
2018-05-01T11:21:46.025Z,3.70
2018-05-01T11:23:50.284Z,3.27
2018-05-01T11:25:53.712Z,4.20
2018-05-01T11:27:57.180Z,3.53
2018-05-01T11:30:00.587Z,4.00
2018-05-01T11:32:03.941Z,2.87
2018-05-01T11:34:07.347Z,3.17
2018-05-01T11:36:10.904Z,3.00
2018-05-01T11:38:14.606Z,3.57
2018-05-01T11:40:18.933Z,3.30
2018-05-01T11:42:22.925Z,3.73
2018-05-01T11:44:27.167Z,3.70
2018-05-01T11:46:30.628Z,3.40
2018-05-01T11:48:34.047Z,3.90
2018-05-01T11:50:37.574Z,2.97
2018-05-01T11:52:41.921Z,3.83
2018-05-01T11:54:45.923Z,3.83
2018-05-01T11:56:50.332Z,3.30
2018-05-01T11:58:53.731Z,3.20
2018-05-01T12:00:57.478Z,3.17
2018-05-01T12:03:02.594Z,3.90
2018-05-01T12:05:08.259Z,3.13
2018-05-01T12:07:11.707Z,3.10
2018-05-01T12:09:15.193Z,3.40
2018-05-01T12:11:18.562Z,3.27
2018-05-01T12:13:21.994Z,3.43
2018-05-01T12:15:25.384Z,3.70
2018-05-01T12:17:29.752Z,3.50
2018-05-01T12:21:43.139Z,4.13
2018-05-01T12:23:48.308Z,4.50
2018-05-01T12:25:52.377Z,3.70
2018-05-01T12:27:56.235Z,4.40
2018-05-01T12:30:00.682Z,3.70
2018-05-01T12:32:05.419Z,3.57
2018-05-01T12:34:09.558Z,3.87
2018-05-01T12:36:13.134Z,3.30
2018-05-01T12:38:17.842Z,4.10
2018-05-01T12:40:22.883Z,3.30
2018-05-01T12:42:27.594Z,3.40
2018-05-01T12:44:31.897Z,3.23
2018-05-01T12:46:36.456Z,4.00
2018-05-01T12:48:39.958Z,3.70
2018-05-01T12:50:44.284Z,3.40
2018-05-01T12:52:47.897Z,3.37
2018-05-01T12:54:52.370Z,3.50
2018-05-01T12:56:57.828Z,2.70
2018-05-01T12:59:01.380Z,4.03
2018-05-01T13:01:05.528Z,3.23
2018-05-01T13:03:08.921Z,3.73
2018-05-01T13:05:12.396Z,3.47
2018-05-01T13:07:16.732Z,3.27
2018-05-01T13:09:20.123Z,3.73
2018-05-01T13:11:23.501Z,3.47
2018-05-01T13:13:26.910Z,3.53
2018-05-01T13:15:30.260Z,3.30
2018-05-01T13:17:33.641Z,3.50
2018-05-01T13:19:37.048Z,3.23
2018-05-01T13:21:42.172Z,3.63
2018-05-01T13:23:46.558Z,3.50
2018-05-01T13:25:49.952Z,3.33
2018-05-01T13:27:53.453Z,3.37
2018-05-01T13:29:57.732Z,3.80
2018-05-01T13:32:01.230Z,3.10
2018-05-01T13:34:04.800Z,3.17
2018-05-01T13:36:08.160Z,3.20
2018-05-01T13:38:11.564Z,3.47
2018-05-01T13:40:14.938Z,3.20
2018-05-01T13:42:19.112Z,2.93
2018-05-01T13:44:22.988Z,3.37
2018-05-01T13:46:26.464Z,3.40
2018-05-01T13:48:29.888Z,3.70
2018-05-01T13:50:34.808Z,3.50
2018-05-01T13:52:38.167Z,3.33
2018-05-01T13:54:41.648Z,3.60
2018-05-01T13:56:45.018Z,3.63
2018-05-01T13:58:48.513Z,3.20
2018-05-01T14:00:52.062Z,4.80
2018-05-01T14:02:55.576Z,3.20
2018-05-01T14:04:59.692Z,3.40
2018-05-01T14:07:03.262Z,3.40
2018-05-01T14:09:07.364Z,3.40
2018-05-01T14:11:11.554Z,3.27
2018-05-01T14:13:15.388Z,2.90
2018-05-01T14:15:18.815Z,3.07
2018-05-01T14:17:22.244Z,2.97
2018-05-01T14:19:25.873Z,3.20
2018-05-01T14:21:29.250Z,3.27
2018-05-01T14:23:32.699Z,2.97
2018-05-01T14:25:36.355Z,3.43
2018-05-01T14:27:39.630Z,3.03
2018-05-01T14:29:43.041Z,3.60
2018-05-01T14:31:47.210Z,3.20
2018-05-01T14:33:50.613Z,3.37
2018-05-01T14:35:54.035Z,2.83
2018-05-01T14:37:57.501Z,3.20
2018-05-01T14:40:00.938Z,3.03
2018-05-01T14:42:05.173Z,3.33
2018-05-01T14:44:08.559Z,3.07
2018-05-01T14:46:12.730Z,3.43
2018-05-01T14:48:16.096Z,3.37
2018-05-01T14:50:19.469Z,2.83
2018-05-01T14:52:22.864Z,2.77
2018-05-01T14:54:26.245Z,3.03
2018-05-01T14:56:30.414Z,3.13
2018-05-01T14:58:34.634Z,3.33
2018-05-01T15:00:38.001Z,3.23
2018-05-01T15:02:53.140Z,3.33
2018-05-01T15:04:56.524Z,2.93
2018-05-01T15:06:59.870Z,3.27
2018-05-01T15:09:04.125Z,3.03
2018-05-01T15:11:07.504Z,2.63
2018-05-01T15:13:11.670Z,2.80
2018-05-01T15:15:15.030Z,3.00
2018-05-01T15:17:18.459Z,2.90
2018-05-01T15:19:21.902Z,3.03
2018-05-01T15:21:25.240Z,3.30
2018-05-01T15:23:28.757Z,3.00
2018-05-01T15:25:32.130Z,2.77
2018-05-01T15:27:35.498Z,3.60
2018-05-01T15:29:38.855Z,3.27
2018-05-01T15:31:42.963Z,3.90
2018-05-01T15:33:47.247Z,3.40
2018-05-01T15:35:50.635Z,3.00
2018-05-01T15:37:54.065Z,3.07
2018-05-01T15:39:57.486Z,2.87
2018-05-01T15:42:00.818Z,3.60
2018-05-01T15:44:05.356Z,4.10
2018-05-01T15:46:09.450Z,3.13
2018-05-01T15:48:12.838Z,3.03
2018-05-01T15:50:16.260Z,3.77
2018-05-01T15:52:19.651Z,3.10
2018-05-01T15:54:23.808Z,3.17
2018-05-01T15:56:27.131Z,4.03
2018-05-01T15:58:31.260Z,4.10
2018-05-01T16:00:34.609Z,3.40
2018-05-01T16:02:37.945Z,3.13
2018-05-01T16:04:41.341Z,3.50
2018-05-01T16:06:45.515Z,3.10
2018-05-01T16:08:48.921Z,3.50
2018-05-01T16:10:52.278Z,3.43
2018-05-01T16:12:55.654Z,3.53
2018-05-01T16:14:59.016Z,3.53
2018-05-01T16:17:03.124Z,3.30
2018-05-01T16:19:06.545Z,3.10
2018-05-01T16:21:09.897Z,2.90
2018-05-01T16:23:14.037Z,2.90
2018-05-01T16:25:17.417Z,2.90
2018-05-01T16:27:20.768Z,2.70
2018-05-01T16:29:24.129Z,3.53
2018-05-01T16:31:27.538Z,3.30
2018-05-01T16:33:30.881Z,3.00
2018-05-01T16:35:34.328Z,3.73
2018-05-01T16:37:37.734Z,3.60
2018-05-01T16:39:41.122Z,2.70
2018-05-01T16:41:44.452Z,3.27
2018-05-01T16:43:47.836Z,3.23
2018-05-01T16:45:51.153Z,3.00
2018-05-01T16:47:54.521Z,3.10
2018-05-01T16:49:58.657Z,3.00
2018-05-01T16:52:02.038Z,2.93
2018-05-01T16:54:05.417Z,3.00
2018-05-01T16:56:09.636Z,3.33
2018-05-01T16:58:13.071Z,3.03
2018-05-01T17:00:16.530Z,2.97
2018-05-01T17:02:19.931Z,3.43
2018-05-01T17:04:23.373Z,3.37
2018-05-01T17:06:26.734Z,2.90
2018-05-01T17:08:30.847Z,3.73
2018-05-01T17:10:34.207Z,2.60
2018-05-01T17:12:38.322Z,2.80
2018-05-01T17:14:41.738Z,2.67
2018-05-01T17:16:45.075Z,2.97
2018-05-01T17:18:48.407Z,3.00
2018-05-01T17:20:52.621Z,3.37
2018-05-01T17:22:56.027Z,3.47
2018-05-01T17:24:59.391Z,3.03
2018-05-01T17:27:02.749Z,3.13
2018-05-01T17:29:06.920Z,3.27
2018-05-01T17:31:11.006Z,3.50
2018-05-01T17:33:14.398Z,3.17
2018-05-01T17:35:17.834Z,3.07
2018-05-01T17:37:21.185Z,3.00
2018-05-01T17:39:24.550Z,3.10
2018-05-01T17:41:27.886Z,2.73
2018-05-01T17:43:31.218Z,3.00
2018-05-01T17:45:35.370Z,3.10
2018-05-01T17:47:39.559Z,3.00
2018-05-01T17:49:42.985Z,2.77
2018-05-01T17:51:46.354Z,2.40
2018-05-01T17:53:50.560Z,4.03
2018-05-01T17:55:54.069Z,2.97
2018-05-01T17:57:58.180Z,2.70
2018-05-01T18:00:01.710Z,2.63
2018-05-01T18:02:05.057Z,3.07
2018-05-01T18:04:08.394Z,2.73
2018-05-01T18:06:11.774Z,2.90
2018-05-01T18:08:15.188Z,2.80
2018-05-01T18:10:19.005Z,2.40
2018-05-01T18:12:22.565Z,2.40
2018-05-01T18:14:25.909Z,2.00
2018-05-01T18:16:30.282Z,2.80
2018-05-01T18:18:33.939Z,3.23
2018-05-01T18:20:39.178Z,3.17
2018-05-01T18:22:42.702Z,3.27
2018-05-01T18:24:48.467Z,3.03
2018-05-01T18:26:53.769Z,2.50
2018-05-01T18:28:58.067Z,3.10
2018-05-01T18:31:02.506Z,2.47
2018-05-01T18:33:06.162Z,2.67
2018-05-01T18:35:11.253Z,2.60
2018-05-01T18:37:14.664Z,2.50
2018-05-01T18:39:18.152Z,2.10
2018-05-01T18:41:25.909Z,2.80
2018-05-01T18:43:29.618Z,3.50
2018-05-01T18:45:33.789Z,3.70
2018-05-01T18:47:40.551Z,3.70
2018-05-01T18:49:45.773Z,3.83
2018-05-01T18:51:49.775Z,3.27
2018-05-01T18:53:53.371Z,3.70
2018-05-01T18:55:58.237Z,3.10
2018-05-01T18:58:02.109Z,3.10
2018-05-01T19:00:07.852Z,2.90
2018-05-01T19:02:13.809Z,2.43
2018-05-01T19:04:22.652Z,2.47
2018-05-01T19:06:28.599Z,2.80
2018-05-01T19:08:33.124Z,2.53
2018-05-01T19:10:36.704Z,2.23
2018-05-01T19:12:41.826Z,2.63
2018-05-01T19:14:46.295Z,2.77
2018-05-01T19:16:50.339Z,2.80
2018-05-01T19:18:56.132Z,4.40
2018-05-01T19:21:00.422Z,3.90
2018-05-01T19:23:04.434Z,4.37
2018-05-01T19:25:10.404Z,4.17
2018-05-01T19:27:16.318Z,4.20
2018-05-01T19:29:24.804Z,5.03
2018-05-01T19:31:30.122Z,9.27
2018-05-01T19:33:34.425Z,9.23
2018-05-01T19:35:38.978Z,9.40
2018-05-01T19:37:44.085Z,8.90
2018-05-01T19:39:52.002Z,8.40
2018-05-01T19:41:56.704Z,7.63
2018-05-01T19:44:00.681Z,4.20
2018-05-01T19:46:04.765Z,2.80
2018-05-01T19:48:08.212Z,2.93
2018-05-01T19:50:12.026Z,2.80
2018-05-01T19:52:16.176Z,2.40
2018-05-01T19:54:19.755Z,3.07
2018-05-01T19:56:24.915Z,2.70
2018-05-01T19:58:29.230Z,2.40
2018-05-01T20:00:32.697Z,2.20
2018-05-01T20:02:36.353Z,2.37
2018-05-01T20:04:39.885Z,3.40
2018-05-01T20:06:43.331Z,3.67
2018-05-01T20:08:47.669Z,3.40
2018-05-01T20:10:51.129Z,3.10
2018-05-01T20:12:55.331Z,3.00
2018-05-01T20:14:59.352Z,2.57
2018-05-01T20:17:03.855Z,2.40
2018-05-01T20:19:08.194Z,3.50
2018-05-01T20:21:12.426Z,3.10
2018-05-01T20:23:15.786Z,3.10
2018-05-01T20:25:19.682Z,3.20
2018-05-01T20:27:23.551Z,2.97
2018-05-01T20:29:28.419Z,2.93
2018-05-01T20:31:33.049Z,2.80
2018-05-01T20:33:39.049Z,3.10
2018-05-01T20:35:44.850Z,2.63
2018-05-01T20:37:48.956Z,2.70
2018-05-01T20:39:53.171Z,2.50
2018-05-01T20:41:56.845Z,3.13
2018-05-01T20:44:00.452Z,2.90
2018-05-01T20:46:05.328Z,3.23
2018-05-01T20:48:09.640Z,3.27
2018-05-01T20:50:13.910Z,3.47
2018-05-01T20:52:18.913Z,3.63
2018-05-01T20:54:22.527Z,3.40
2018-05-01T20:56:26.998Z,4.03
2018-05-01T20:58:30.982Z,5.83
2018-05-01T21:00:34.459Z,7.20
2018-05-01T21:02:38.025Z,10.30
2018-05-01T21:04:41.489Z,11.47
2018-05-01T21:06:46.072Z,9.60
2018-05-01T21:08:50.252Z,12.80
2018-05-01T21:10:53.679Z,31.73
2018-05-01T21:15:11.629Z,30.17
2018-05-01T21:17:16.669Z,23.17
2018-05-01T21:19:22.159Z,28.53
2018-05-01T21:21:27.852Z,27.60
2018-05-01T21:23:31.556Z,26.40
2018-05-01T21:25:37.497Z,24.10
2018-05-01T21:27:44.802Z,17.97
2018-05-01T21:29:48.601Z,15.47
2018-05-01T21:31:51.992Z,20.30
2018-05-01T21:33:55.966Z,13.77
2018-05-01T21:35:59.523Z,8.20
2018-05-01T21:38:03.007Z,8.73
2018-05-01T21:40:07.446Z,8.33
2018-05-01T21:42:10.855Z,6.60
2018-05-01T21:44:14.335Z,6.83
2018-05-01T21:46:18.543Z,5.37
2018-05-01T21:48:23.210Z,5.50
2018-05-01T21:50:26.930Z,4.23
2018-05-01T21:52:31.046Z,4.90
2018-05-01T21:54:34.625Z,4.67
2018-05-01T21:56:38.903Z,5.00
2018-05-01T21:58:42.652Z,5.27
2018-05-01T22:00:47.109Z,4.03
2018-05-01T22:02:52.211Z,4.90
2018-05-01T22:04:56.563Z,4.60
2018-05-01T22:07:00.795Z,4.83
2018-05-01T22:09:06.523Z,5.90
2018-05-01T22:11:11.361Z,6.17
2018-05-01T22:13:15.605Z,4.67
2018-05-01T22:15:19.033Z,4.60
2018-05-01T22:17:22.421Z,4.47
2018-05-01T22:19:26.536Z,3.80
2018-05-01T22:21:30.191Z,4.43
2018-05-01T22:23:33.583Z,5.10
2018-05-01T22:25:37.683Z,4.57
2018-05-01T22:27:41.026Z,5.60
2018-05-01T22:29:44.455Z,5.83
2018-05-01T22:31:47.842Z,6.47
2018-05-01T22:33:51.264Z,5.80
2018-05-01T22:35:54.609Z,4.97
2018-05-01T22:40:07.664Z,4.90
2018-05-01T22:42:11.094Z,4.40
2018-05-01T22:44:15.185Z,4.93
2018-05-01T22:46:19.321Z,4.97
2018-05-01T22:48:22.673Z,4.80
2018-05-01T22:50:26.066Z,4.70
2018-05-01T22:52:30.229Z,4.90
2018-05-01T22:54:33.649Z,4.90
2018-05-01T22:56:36.991Z,4.30
2018-05-01T22:58:41.174Z,4.67
2018-05-01T23:00:44.593Z,5.40
2018-05-01T23:02:48.755Z,4.40
2018-05-01T23:04:52.138Z,4.67
2018-05-01T23:06:55.494Z,4.00
2018-05-01T23:08:59.632Z,4.00
2018-05-01T23:11:02.991Z,4.27
2018-05-01T23:13:06.387Z,4.70
2018-05-01T23:15:09.720Z,4.37
2018-05-01T23:17:13.117Z,5.03
2018-05-01T23:19:16.458Z,5.40
2018-05-01T23:21:19.843Z,4.63
2018-05-01T23:23:23.311Z,5.23
2018-05-01T23:25:27.435Z,4.70
2018-05-01T23:27:31.602Z,5.07
2018-05-01T23:29:34.953Z,4.53
2018-05-01T23:31:39.090Z,4.67
2018-05-01T23:33:42.461Z,4.00
2018-05-01T23:35:45.859Z,4.60
2018-05-01T23:37:49.272Z,4.80
2018-05-01T23:39:52.699Z,5.87
2018-05-01T23:41:56.064Z,5.63
2018-05-01T23:43:59.544Z,5.30
2018-05-01T23:46:02.910Z,4.90
2018-05-01T23:48:06.272Z,5.37
2018-05-01T23:50:09.615Z,5.50
2018-05-01T23:52:13.004Z,4.90
2018-05-01T23:54:16.445Z,4.70
2018-05-01T23:56:19.801Z,5.17
2018-05-01T23:58:23.172Z,4.87
